sensor_id;sensor_type;location;lat;lon;timestamp;temperature;humidity
9393;DHT22;4736;52.508;13.422;2023-06-14T00:01:56;14.50;62.40
9393;DHT22;4736;52.508;13.422;2023-06-14T00:04:59;14.50;62.60
9393;DHT22;4736;52.508;13.422;2023-06-14T00:08:03;14.50;62.50
9393;DHT22;4736;52.508;13.422;2023-06-14T00:11:09;14.40;62.60
9393;DHT22;4736;52.508;13.422;2023-06-14T00:14:12;14.40;63.10
9393;DHT22;4736;52.508;13.422;2023-06-14T00:17:16;14.40;63.30
9393;DHT22;4736;52.508;13.422;2023-06-14T00:20:20;14.30;63.60
9393;DHT22;4736;52.508;13.422;2023-06-14T00:23:24;14.30;63.60
9393;DHT22;4736;52.508;13.422;2023-06-14T00:26:27;14.30;63.80
9393;DHT22;4736;52.508;13.422;2023-06-14T00:29:30;14.20;64.00
9393;DHT22;4736;52.508;13.422;2023-06-14T00:32:35;14.20;64.30
9393;DHT22;4736;52.508;13.422;2023-06-14T00:35:38;14.20;64.40
9393;DHT22;4736;52.508;13.422;2023-06-14T00:38:41;14.20;64.30
9393;DHT22;4736;52.508;13.422;2023-06-14T00:41:45;14.10;64.70
9393;DHT22;4736;52.508;13.422;2023-06-14T00:44:48;14.10;64.80
9393;DHT22;4736;52.508;13.422;2023-06-14T00:47:53;14.00;65.00
9393;DHT22;4736;52.508;13.422;2023-06-14T00:51:00;14.00;65.40
9393;DHT22;4736;52.508;13.422;2023-06-14T00:54:05;14.00;65.60
9393;DHT22;4736;52.508;13.422;2023-06-14T00:57:09;14.00;65.60
9393;DHT22;4736;52.508;13.422;2023-06-14T01:00:14;14.00;66.00
9393;DHT22;4736;52.508;13.422;2023-06-14T01:03:19;13.90;66.30
9393;DHT22;4736;52.508;13.422;2023-06-14T01:06:37;13.90;66.40
9393;DHT22;4736;52.508;13.422;2023-06-14T01:09:51;13.90;66.70
9393;DHT22;4736;52.508;13.422;2023-06-14T01:13:02;13.90;66.60
9393;DHT22;4736;52.508;13.422;2023-06-14T01:16:08;13.90;66.70
9393;DHT22;4736;52.508;13.422;2023-06-14T01:19:12;13.90;66.70
9393;DHT22;4736;52.508;13.422;2023-06-14T01:22:17;13.90;66.80
9393;DHT22;4736;52.508;13.422;2023-06-14T01:25:22;13.90;66.80
9393;DHT22;4736;52.508;13.422;2023-06-14T01:28:26;13.90;67.00
9393;DHT22;4736;52.508;13.422;2023-06-14T01:31:34;13.90;67.00
9393;DHT22;4736;52.508;13.422;2023-06-14T01:34:43;13.90;67.20
9393;DHT22;4736;52.508;13.422;2023-06-14T01:37:47;13.90;67.10
9393;DHT22;4736;52.508;13.422;2023-06-14T01:40:54;13.80;67.00
9393;DHT22;4736;52.508;13.422;2023-06-14T01:43:58;13.80;67.00
9393;DHT22;4736;52.508;13.422;2023-06-14T01:47:01;13.80;67.20
9393;DHT22;4736;52.508;13.422;2023-06-14T01:50:06;13.80;67.20
9393;DHT22;4736;52.508;13.422;2023-06-14T01:53:10;13.70;67.20
9393;DHT22;4736;52.508;13.422;2023-06-14T01:56:15;13.70;67.20
9393;DHT22;4736;52.508;13.422;2023-06-14T01:59:18;13.70;67.30
9393;DHT22;4736;52.508;13.422;2023-06-14T02:02:21;13.70;67.50
9393;DHT22;4736;52.508;13.422;2023-06-14T02:05:24;13.60;67.50
9393;DHT22;4736;52.508;13.422;2023-06-14T02:08:28;13.60;67.50
9393;DHT22;4736;52.508;13.422;2023-06-14T02:11:33;13.60;67.60
9393;DHT22;4736;52.508;13.422;2023-06-14T02:14:36;13.60;67.70
9393;DHT22;4736;52.508;13.422;2023-06-14T02:17:39;13.50;67.90
9393;DHT22;4736;52.508;13.422;2023-06-14T02:20:43;13.50;68.00
9393;DHT22;4736;52.508;13.422;2023-06-14T02:23:46;13.50;68.10
9393;DHT22;4736;52.508;13.422;2023-06-14T02:26:51;13.60;68.30
9393;DHT22;4736;52.508;13.422;2023-06-14T02:29:54;13.50;68.30
9393;DHT22;4736;52.508;13.422;2023-06-14T02:32:57;13.50;68.50
9393;DHT22;4736;52.508;13.422;2023-06-14T02:36:01;13.50;68.60
9393;DHT22;4736;52.508;13.422;2023-06-14T02:39:07;13.50;68.50
9393;DHT22;4736;52.508;13.422;2023-06-14T02:42:13;13.50;68.60
9393;DHT22;4736;52.508;13.422;2023-06-14T02:45:17;13.50;68.70
9393;DHT22;4736;52.508;13.422;2023-06-14T02:48:20;13.50;68.70
9393;DHT22;4736;52.508;13.422;2023-06-14T02:51:23;13.50;68.70
9393;DHT22;4736;52.508;13.422;2023-06-14T02:54:26;13.50;68.80
9393;DHT22;4736;52.508;13.422;2023-06-14T02:57:31;13.40;68.80
9393;DHT22;4736;52.508;13.422;2023-06-14T03:00:34;13.40;68.80
9393;DHT22;4736;52.508;13.422;2023-06-14T03:03:37;13.40;68.90
9393;DHT22;4736;52.508;13.422;2023-06-14T03:06:41;13.40;68.80
9393;DHT22;4736;52.508;13.422;2023-06-14T03:09:46;13.40;69.00
9393;DHT22;4736;52.508;13.422;2023-06-14T03:12:52;13.30;69.00
9393;DHT22;4736;52.508;13.422;2023-06-14T03:15:55;13.40;69.00
9393;DHT22;4736;52.508;13.422;2023-06-14T03:18:58;13.30;69.00
9393;DHT22;4736;52.508;13.422;2023-06-14T03:22:01;13.40;69.00
9393;DHT22;4736;52.508;13.422;2023-06-14T03:25:05;13.40;68.90
9393;DHT22;4736;52.508;13.422;2023-06-14T03:28:09;13.40;68.70
9393;DHT22;4736;52.508;13.422;2023-06-14T03:31:13;13.30;68.90
9393;DHT22;4736;52.508;13.422;2023-06-14T03:34:17;13.40;69.00
9393;DHT22;4736;52.508;13.422;2023-06-14T03:37:21;13.40;68.90
9393;DHT22;4736;52.508;13.422;2023-06-14T03:40:25;13.40;69.10
9393;DHT22;4736;52.508;13.422;2023-06-14T03:43:30;13.50;68.90
9393;DHT22;4736;52.508;13.422;2023-06-14T03:46:34;13.50;68.80
9393;DHT22;4736;52.508;13.422;2023-06-14T03:49:37;13.50;68.70
9393;DHT22;4736;52.508;13.422;2023-06-14T03:52:40;13.50;68.80
9393;DHT22;4736;52.508;13.422;2023-06-14T03:55:45;13.50;68.70
9393;DHT22;4736;52.508;13.422;2023-06-14T03:58:52;13.50;68.70
9393;DHT22;4736;52.508;13.422;2023-06-14T04:01:55;13.50;68.60
9393;DHT22;4736;52.508;13.422;2023-06-14T04:04:58;13.60;68.70
9393;DHT22;4736;52.508;13.422;2023-06-14T04:08:03;13.70;68.70
9393;DHT22;4736;52.508;13.422;2023-06-14T04:11:10;13.80;68.40
9393;DHT22;4736;52.508;13.422;2023-06-14T04:14:15;13.90;68.20
9393;DHT22;4736;52.508;13.422;2023-06-14T04:17:18;14.00;68.00
9393;DHT22;4736;52.508;13.422;2023-06-14T04:20:21;14.00;67.80
9393;DHT22;4736;52.508;13.422;2023-06-14T04:23:25;14.10;67.70
9393;DHT22;4736;52.508;13.422;2023-06-14T04:26:30;14.10;67.70
9393;DHT22;4736;52.508;13.422;2023-06-14T04:29:36;14.20;67.50
9393;DHT22;4736;52.508;13.422;2023-06-14T04:32:40;14.30;67.30
9393;DHT22;4736;52.508;13.422;2023-06-14T04:35:44;14.30;67.30
9393;DHT22;4736;52.508;13.422;2023-06-14T04:38:50;14.40;67.20
9393;DHT22;4736;52.508;13.422;2023-06-14T04:41:56;14.40;67.00
9393;DHT22;4736;52.508;13.422;2023-06-14T04:45:04;14.50;66.90
9393;DHT22;4736;52.508;13.422;2023-06-14T04:48:11;14.60;66.80
9393;DHT22;4736;52.508;13.422;2023-06-14T04:51:15;14.70;66.60
9393;DHT22;4736;52.508;13.422;2023-06-14T04:54:18;14.90;66.30
9393;DHT22;4736;52.508;13.422;2023-06-14T04:57:21;15.00;65.80
9393;DHT22;4736;52.508;13.422;2023-06-14T05:00:28;15.20;65.30
9393;DHT22;4736;52.508;13.422;2023-06-14T05:03:32;15.50;65.10
9393;DHT22;4736;52.508;13.422;2023-06-14T05:06:36;15.80;64.20
9393;DHT22;4736;52.508;13.422;2023-06-14T05:09:40;16.10;63.70
9393;DHT22;4736;52.508;13.422;2023-06-14T05:12:43;16.20;63.00
9393;DHT22;4736;52.508;13.422;2023-06-14T05:15:47;16.10;62.90
9393;DHT22;4736;52.508;13.422;2023-06-14T05:18:51;16.00;63.20
9393;DHT22;4736;52.508;13.422;2023-06-14T05:21:54;16.00;63.50
9393;DHT22;4736;52.508;13.422;2023-06-14T05:24:57;15.90;63.50
9393;DHT22;4736;52.508;13.422;2023-06-14T05:28:00;16.00;63.40
9393;DHT22;4736;52.508;13.422;2023-06-14T05:31:05;16.00;63.40
9393;DHT22;4736;52.508;13.422;2023-06-14T05:34:08;16.10;63.40
9393;DHT22;4736;52.508;13.422;2023-06-14T05:37:11;16.10;63.40
9393;DHT22;4736;52.508;13.422;2023-06-14T05:40:14;16.20;63.30
9393;DHT22;4736;52.508;13.422;2023-06-14T05:43:19;16.40;62.70
9393;DHT22;4736;52.508;13.422;2023-06-14T05:46:24;16.50;62.40
9393;DHT22;4736;52.508;13.422;2023-06-14T05:49:27;16.50;62.50
9393;DHT22;4736;52.508;13.422;2023-06-14T05:52:30;16.60;62.40
9393;DHT22;4736;52.508;13.422;2023-06-14T05:55:34;16.60;62.10
9393;DHT22;4736;52.508;13.422;2023-06-14T05:58:39;16.50;62.30
9393;DHT22;4736;52.508;13.422;2023-06-14T06:01:43;16.50;62.20
9393;DHT22;4736;52.508;13.422;2023-06-14T06:04:47;16.50;62.20
9393;DHT22;4736;52.508;13.422;2023-06-14T06:07:50;16.50;62.20
9393;DHT22;4736;52.508;13.422;2023-06-14T06:10:53;16.50;62.20
9393;DHT22;4736;52.508;13.422;2023-06-14T06:13:56;16.50;62.50
9393;DHT22;4736;52.508;13.422;2023-06-14T06:17:00;16.40;62.30
9393;DHT22;4736;52.508;13.422;2023-06-14T06:20:04;16.40;62.50
9393;DHT22;4736;52.508;13.422;2023-06-14T06:23:10;16.40;62.70
9393;DHT22;4736;52.508;13.422;2023-06-14T06:26:13;16.40;62.80
9393;DHT22;4736;52.508;13.422;2023-06-14T06:29:16;16.40;62.70
9393;DHT22;4736;52.508;13.422;2023-06-14T06:32:21;16.50;62.70
9393;DHT22;4736;52.508;13.422;2023-06-14T06:35:24;16.50;62.70
9393;DHT22;4736;52.508;13.422;2023-06-14T06:38:27;16.50;62.70
9393;DHT22;4736;52.508;13.422;2023-06-14T06:41:30;16.50;62.50
9393;DHT22;4736;52.508;13.422;2023-06-14T06:44:34;16.50;62.60
9393;DHT22;4736;52.508;13.422;2023-06-14T06:47:38;16.50;62.70
9393;DHT22;4736;52.508;13.422;2023-06-14T06:50:42;16.70;62.60
9393;DHT22;4736;52.508;13.422;2023-06-14T06:53:52;16.70;62.50
9393;DHT22;4736;52.508;13.422;2023-06-14T06:56:55;16.80;62.30
9393;DHT22;4736;52.508;13.422;2023-06-14T06:59:58;17.00;62.10
9393;DHT22;4736;52.508;13.422;2023-06-14T07:03:03;17.00;61.90
9393;DHT22;4736;52.508;13.422;2023-06-14T07:06:06;17.10;61.80
9393;DHT22;4736;52.508;13.422;2023-06-14T07:09:09;17.20;61.60
9393;DHT22;4736;52.508;13.422;2023-06-14T07:12:14;17.40;61.40
9393;DHT22;4736;52.508;13.422;2023-06-14T07:15:18;17.50;61.30
9393;DHT22;4736;52.508;13.422;2023-06-14T07:18:22;17.60;60.70
9393;DHT22;4736;52.508;13.422;2023-06-14T07:21:26;17.60;60.20
9393;DHT22;4736;52.508;13.422;2023-06-14T07:24:29;17.60;60.30
9393;DHT22;4736;52.508;13.422;2023-06-14T07:27:32;17.70;60.30
9393;DHT22;4736;52.508;13.422;2023-06-14T07:30:35;17.70;60.20
9393;DHT22;4736;52.508;13.422;2023-06-14T07:33:40;17.80;60.50
9393;DHT22;4736;52.508;13.422;2023-06-14T07:36:44;18.00;60.00
9393;DHT22;4736;52.508;13.422;2023-06-14T07:39:47;18.20;59.40
9393;DHT22;4736;52.508;13.422;2023-06-14T07:42:50;18.50;59.70
9393;DHT22;4736;52.508;13.422;2023-06-14T07:45:56;18.80;58.70
9393;DHT22;4736;52.508;13.422;2023-06-14T07:49:11;19.10;58.70
9393;DHT22;4736;52.508;13.422;2023-06-14T07:52:15;19.30;58.10
9393;DHT22;4736;52.508;13.422;2023-06-14T07:55:18;19.50;57.30
9393;DHT22;4736;52.508;13.422;2023-06-14T07:58:21;19.80;56.90
9393;DHT22;4736;52.508;13.422;2023-06-14T08:01:24;20.00;56.40
9393;DHT22;4736;52.508;13.422;2023-06-14T08:04:29;20.10;56.50
9393;DHT22;4736;52.508;13.422;2023-06-14T08:07:32;20.30;55.40
9393;DHT22;4736;52.508;13.422;2023-06-14T08:10:35;20.30;55.70
9393;DHT22;4736;52.508;13.422;2023-06-14T08:13:39;20.00;55.50
9393;DHT22;4736;52.508;13.422;2023-06-14T08:16:42;19.90;55.90
9393;DHT22;4736;52.508;13.422;2023-06-14T08:19:46;19.70;56.20
9393;DHT22;4736;52.508;13.422;2023-06-14T08:22:49;19.50;56.60
9393;DHT22;4736;52.508;13.422;2023-06-14T08:25:57;19.50;56.20
9393;DHT22;4736;52.508;13.422;2023-06-14T08:29:00;19.70;56.70
9393;DHT22;4736;52.508;13.422;2023-06-14T08:32:04;19.90;55.90
9393;DHT22;4736;52.508;13.422;2023-06-14T08:35:09;20.10;56.00
9393;DHT22;4736;52.508;13.422;2023-06-14T08:38:12;20.50;55.50
9393;DHT22;4736;52.508;13.422;2023-06-14T08:41:21;20.50;54.70
9393;DHT22;4736;52.508;13.422;2023-06-14T08:44:25;20.50;54.50
9393;DHT22;4736;52.508;13.422;2023-06-14T08:47:28;20.50;54.80
9393;DHT22;4736;52.508;13.422;2023-06-14T08:50:45;20.50;54.50
9393;DHT22;4736;52.508;13.422;2023-06-14T08:53:52;20.50;54.30
9393;DHT22;4736;52.508;13.422;2023-06-14T08:56:59;20.50;53.60
9393;DHT22;4736;52.508;13.422;2023-06-14T09:00:04;20.60;53.50
9393;DHT22;4736;52.508;13.422;2023-06-14T09:03:13;20.60;53.60
9393;DHT22;4736;52.508;13.422;2023-06-14T09:06:19;20.90;53.90
9393;DHT22;4736;52.508;13.422;2023-06-14T09:09:25;21.30;53.60
9393;DHT22;4736;52.508;13.422;2023-06-14T09:12:29;21.60;52.80
9393;DHT22;4736;52.508;13.422;2023-06-14T09:15:34;21.90;52.10
9393;DHT22;4736;52.508;13.422;2023-06-14T09:18:38;21.90;51.20
9393;DHT22;4736;52.508;13.422;2023-06-14T09:21:47;21.90;51.20
9393;DHT22;4736;52.508;13.422;2023-06-14T09:24:50;22.00;50.90
9393;DHT22;4736;52.508;13.422;2023-06-14T09:27:55;22.20;51.10
9393;DHT22;4736;52.508;13.422;2023-06-14T09:31:00;22.30;50.40
9393;DHT22;4736;52.508;13.422;2023-06-14T09:34:03;22.30;50.00
9393;DHT22;4736;52.508;13.422;2023-06-14T09:37:08;22.30;50.10
9393;DHT22;4736;52.508;13.422;2023-06-14T09:40:11;22.20;50.70
9393;DHT22;4736;52.508;13.422;2023-06-14T09:43:14;22.30;50.40
9393;DHT22;4736;52.508;13.422;2023-06-14T09:46:18;22.30;50.50
9393;DHT22;4736;52.508;13.422;2023-06-14T09:49:22;22.20;50.70
9393;DHT22;4736;52.508;13.422;2023-06-14T09:52:29;22.30;50.80
9393;DHT22;4736;52.508;13.422;2023-06-14T09:55:35;22.30;50.80
9393;DHT22;4736;52.508;13.422;2023-06-14T09:58:39;22.30;50.60
9393;DHT22;4736;52.508;13.422;2023-06-14T10:01:43;22.30;50.30
9393;DHT22;4736;52.508;13.422;2023-06-14T10:04:56;22.30;50.30
9393;DHT22;4736;52.508;13.422;2023-06-14T10:08:08;22.40;50.20
9393;DHT22;4736;52.508;13.422;2023-06-14T10:11:13;22.40;50.30
9393;DHT22;4736;52.508;13.422;2023-06-14T10:14:16;22.40;50.20
9393;DHT22;4736;52.508;13.422;2023-06-14T10:17:30;22.30;50.50
9393;DHT22;4736;52.508;13.422;2023-06-14T10:20:39;22.30;50.30
9393;DHT22;4736;52.508;13.422;2023-06-14T10:23:47;22.40;50.30
9393;DHT22;4736;52.508;13.422;2023-06-14T10:26:53;22.50;50.20
9393;DHT22;4736;52.508;13.422;2023-06-14T10:30:06;22.40;50.90
9393;DHT22;4736;52.508;13.422;2023-06-14T10:33:09;22.40;50.10
9393;DHT22;4736;52.508;13.422;2023-06-14T10:36:28;22.40;49.90
9393;DHT22;4736;52.508;13.422;2023-06-14T10:39:39;22.00;50.10
9393;DHT22;4736;52.508;13.422;2023-06-14T10:42:51;22.00;50.90
9393;DHT22;4736;52.508;13.422;2023-06-14T10:46:16;22.10;50.90
9393;DHT22;4736;52.508;13.422;2023-06-14T10:49:22;22.20;50.00
9393;DHT22;4736;52.508;13.422;2023-06-14T10:52:41;22.30;50.00
9393;DHT22;4736;52.508;13.422;2023-06-14T10:55:49;22.50;49.50
9393;DHT22;4736;52.508;13.422;2023-06-14T10:58:52;22.60;49.80
9393;DHT22;4736;52.508;13.422;2023-06-14T11:02:03;22.80;49.70
9393;DHT22;4736;52.508;13.422;2023-06-14T11:05:15;22.90;48.70
9393;DHT22;4736;52.508;13.422;2023-06-14T11:12:15;23.10;48.40
9393;DHT22;4736;52.508;13.422;2023-06-14T11:15:20;23.10;48.90
9393;DHT22;4736;52.508;13.422;2023-06-14T11:18:24;23.20;48.80
9393;DHT22;4736;52.508;13.422;2023-06-14T11:21:32;23.40;48.50
9393;DHT22;4736;52.508;13.422;2023-06-14T11:24:35;23.40;48.90
9393;DHT22;4736;52.508;13.422;2023-06-14T11:27:41;23.50;48.30
9393;DHT22;4736;52.508;13.422;2023-06-14T11:30:45;23.50;48.20
9393;DHT22;4736;52.508;13.422;2023-06-14T11:33:49;23.60;47.90
9393;DHT22;4736;52.508;13.422;2023-06-14T11:36:52;23.60;47.70
9393;DHT22;4736;52.508;13.422;2023-06-14T11:39:56;23.50;48.00
9393;DHT22;4736;52.508;13.422;2023-06-14T11:43:02;23.60;47.90
9393;DHT22;4736;52.508;13.422;2023-06-14T11:46:12;23.30;47.60
9393;DHT22;4736;52.508;13.422;2023-06-14T11:49:17;23.40;48.00
9393;DHT22;4736;52.508;13.422;2023-06-14T11:52:20;23.60;47.60
9393;DHT22;4736;52.508;13.422;2023-06-14T11:55:25;23.70;47.50
9393;DHT22;4736;52.508;13.422;2023-06-14T11:58:30;23.80;46.50
9393;DHT22;4736;52.508;13.422;2023-06-14T12:01:37;23.70;46.50
9393;DHT22;4736;52.508;13.422;2023-06-14T12:04:43;23.80;46.20
9393;DHT22;4736;52.508;13.422;2023-06-14T12:07:47;24.00;46.30
9393;DHT22;4736;52.508;13.422;2023-06-14T12:10:51;24.20;45.80
9393;DHT22;4736;52.508;13.422;2023-06-14T12:13:56;24.40;46.30
9393;DHT22;4736;52.508;13.422;2023-06-14T12:17:04;24.50;45.70
9393;DHT22;4736;52.508;13.422;2023-06-14T12:20:10;24.40;46.50
9393;DHT22;4736;52.508;13.422;2023-06-14T12:23:16;24.50;45.80
9393;DHT22;4736;52.508;13.422;2023-06-14T12:26:24;24.40;45.40
9393;DHT22;4736;52.508;13.422;2023-06-14T12:29:31;24.20;45.70
9393;DHT22;4736;52.508;13.422;2023-06-14T12:32:35;24.20;45.70
9393;DHT22;4736;52.508;13.422;2023-06-14T12:35:38;23.90;46.00
9393;DHT22;4736;52.508;13.422;2023-06-14T12:38:41;23.90;45.00
9393;DHT22;4736;52.508;13.422;2023-06-14T12:41:44;24.10;45.20
9393;DHT22;4736;52.508;13.422;2023-06-14T12:44:49;24.20;44.80
9393;DHT22;4736;52.508;13.422;2023-06-14T12:47:52;24.40;44.00
9393;DHT22;4736;52.508;13.422;2023-06-14T12:50:55;24.50;42.90
9393;DHT22;4736;52.508;13.422;2023-06-14T12:53:58;24.90;43.60
9393;DHT22;4736;52.508;13.422;2023-06-14T12:57:02;25.40;43.00
9393;DHT22;4736;52.508;13.422;2023-06-14T13:00:08;25.90;41.50
9393;DHT22;4736;52.508;13.422;2023-06-14T13:03:12;26.00;41.00
9393;DHT22;4736;52.508;13.422;2023-06-14T13:06:16;26.10;40.80
9393;DHT22;4736;52.508;13.422;2023-06-14T13:09:19;26.00;40.50
9393;DHT22;4736;52.508;13.422;2023-06-14T13:12:22;26.00;40.70
9393;DHT22;4736;52.508;13.422;2023-06-14T13:15:27;26.10;40.10
9393;DHT22;4736;52.508;13.422;2023-06-14T13:18:30;26.20;40.10
9393;DHT22;4736;52.508;13.422;2023-06-14T13:21:33;26.20;40.00
9393;DHT22;4736;52.508;13.422;2023-06-14T13:24:37;26.20;40.40
9393;DHT22;4736;52.508;13.422;2023-06-14T13:27:46;26.00;40.90
9393;DHT22;4736;52.508;13.422;2023-06-14T13:30:50;25.90;41.50
9393;DHT22;4736;52.508;13.422;2023-06-14T13:33:54;26.00;41.00
9393;DHT22;4736;52.508;13.422;2023-06-14T13:36:57;25.80;40.20
9393;DHT22;4736;52.508;13.422;2023-06-14T13:40:01;25.80;40.50
9393;DHT22;4736;52.508;13.422;2023-06-14T13:43:04;25.80;40.00
9393;DHT22;4736;52.508;13.422;2023-06-14T13:46:09;25.90;40.40
9393;DHT22;4736;52.508;13.422;2023-06-14T13:49:54;26.00;40.40
9393;DHT22;4736;52.508;13.422;2023-06-14T13:53:14;26.00;40.30
9393;DHT22;4736;52.508;13.422;2023-06-14T13:56:35;26.40;40.60
9393;DHT22;4736;52.508;13.422;2023-06-14T13:59:56;26.60;39.80
9393;DHT22;4736;52.508;13.422;2023-06-14T14:03:21;26.70;39.30
9393;DHT22;4736;52.508;13.422;2023-06-14T14:06:43;26.70;39.90
9393;DHT22;4736;52.508;13.422;2023-06-14T14:10:05;26.90;39.30
9393;DHT22;4736;52.508;13.422;2023-06-14T14:13:27;26.60;39.60
9393;DHT22;4736;52.508;13.422;2023-06-14T14:16:47;26.50;39.70
9393;DHT22;4736;52.508;13.422;2023-06-14T14:20:10;26.30;40.40
9393;DHT22;4736;52.508;13.422;2023-06-14T14:23:32;26.20;40.60
9393;DHT22;4736;52.508;13.422;2023-06-14T14:26:52;26.20;41.00
9393;DHT22;4736;52.508;13.422;2023-06-14T14:30:14;26.20;41.00
9393;DHT22;4736;52.508;13.422;2023-06-14T14:33:19;26.10;40.90
9393;DHT22;4736;52.508;13.422;2023-06-14T14:36:24;25.90;41.00
9393;DHT22;4736;52.508;13.422;2023-06-14T14:39:27;25.80;41.10
9393;DHT22;4736;52.508;13.422;2023-06-14T14:42:31;25.80;41.10
9393;DHT22;4736;52.508;13.422;2023-06-14T14:45:34;25.80;40.90
9393;DHT22;4736;52.508;13.422;2023-06-14T14:48:38;25.60;41.00
9393;DHT22;4736;52.508;13.422;2023-06-14T14:51:43;25.40;41.10
9393;DHT22;4736;52.508;13.422;2023-06-14T14:54:46;25.20;41.40
9393;DHT22;4736;52.508;13.422;2023-06-14T14:57:54;25.00;41.40
9393;DHT22;4736;52.508;13.422;2023-06-14T15:00:58;24.70;42.00
9393;DHT22;4736;52.508;13.422;2023-06-14T15:04:01;24.40;42.50
9393;DHT22;4736;52.508;13.422;2023-06-14T15:07:06;24.20;43.20
9393;DHT22;4736;52.508;13.422;2023-06-14T15:10:12;24.00;43.50
9393;DHT22;4736;52.508;13.422;2023-06-14T15:13:15;23.90;43.70
9393;DHT22;4736;52.508;13.422;2023-06-14T15:16:19;23.70;43.80
9393;DHT22;4736;52.508;13.422;2023-06-14T15:19:22;23.50;44.00
9393;DHT22;4736;52.508;13.422;2023-06-14T15:22:27;23.40;44.00
9393;DHT22;4736;52.508;13.422;2023-06-14T15:25:30;23.20;44.10
9393;DHT22;4736;52.508;13.422;2023-06-14T15:28:34;23.10;44.20
9393;DHT22;4736;52.508;13.422;2023-06-14T15:31:37;23.00;44.30
9393;DHT22;4736;52.508;13.422;2023-06-14T15:34:40;23.10;44.50
9393;DHT22;4736;52.508;13.422;2023-06-14T15:37:48;23.10;44.20
9393;DHT22;4736;52.508;13.422;2023-06-14T15:40:54;23.10;44.10
9393;DHT22;4736;52.508;13.422;2023-06-14T15:43:57;23.20;44.10
9393;DHT22;4736;52.508;13.422;2023-06-14T15:47:02;23.40;44.30
9393;DHT22;4736;52.508;13.422;2023-06-14T15:50:06;23.60;44.40
9393;DHT22;4736;52.508;13.422;2023-06-14T15:53:11;24.00;43.80
9393;DHT22;4736;52.508;13.422;2023-06-14T15:56:15;24.20;43.50
9393;DHT22;4736;52.508;13.422;2023-06-14T15:59:18;24.20;43.60
9393;DHT22;4736;52.508;13.422;2023-06-14T16:02:21;24.00;43.00
9393;DHT22;4736;52.508;13.422;2023-06-14T16:05:24;23.90;43.20
9393;DHT22;4736;52.508;13.422;2023-06-14T16:08:29;23.60;43.40
9393;DHT22;4736;52.508;13.422;2023-06-14T16:11:40;23.50;43.70
9393;DHT22;4736;52.508;13.422;2023-06-14T16:14:44;23.30;44.00
9393;DHT22;4736;52.508;13.422;2023-06-14T16:17:47;23.30;44.50
9393;DHT22;4736;52.508;13.422;2023-06-14T16:20:50;23.20;44.50
9393;DHT22;4736;52.508;13.422;2023-06-14T16:23:56;23.10;44.80
9393;DHT22;4736;52.508;13.422;2023-06-14T16:26:59;23.10;44.40
9393;DHT22;4736;52.508;13.422;2023-06-14T16:30:05;23.10;44.40
9393;DHT22;4736;52.508;13.422;2023-06-14T16:33:08;23.00;44.70
9393;DHT22;4736;52.508;13.422;2023-06-14T16:36:11;22.90;44.70
9393;DHT22;4736;52.508;13.422;2023-06-14T16:39:16;22.80;44.90
9393;DHT22;4736;52.508;13.422;2023-06-14T16:42:19;22.80;44.90
9393;DHT22;4736;52.508;13.422;2023-06-14T16:45:23;22.80;44.90
9393;DHT22;4736;52.508;13.422;2023-06-14T16:48:26;22.80;44.70
9393;DHT22;4736;52.508;13.422;2023-06-14T16:51:29;22.70;44.90
9393;DHT22;4736;52.508;13.422;2023-06-14T16:54:33;22.60;45.30
9393;DHT22;4736;52.508;13.422;2023-06-14T16:57:38;22.60;45.20
9393;DHT22;4736;52.508;13.422;2023-06-14T17:00:41;22.50;45.40
9393;DHT22;4736;52.508;13.422;2023-06-14T17:03:44;22.50;45.50
9393;DHT22;4736;52.508;13.422;2023-06-14T17:06:47;22.40;45.50
9393;DHT22;4736;52.508;13.422;2023-06-14T17:09:52;22.20;45.90
9393;DHT22;4736;52.508;13.422;2023-06-14T17:12:55;22.10;45.90
9393;DHT22;4736;52.508;13.422;2023-06-14T17:15:59;21.90;46.00
9393;DHT22;4736;52.508;13.422;2023-06-14T17:19:02;21.90;46.10
9393;DHT22;4736;52.508;13.422;2023-06-14T17:22:06;21.80;46.10
9393;DHT22;4736;52.508;13.422;2023-06-14T17:25:11;21.70;46.50
9393;DHT22;4736;52.508;13.422;2023-06-14T17:28:14;21.60;46.50
9393;DHT22;4736;52.508;13.422;2023-06-14T17:31:18;21.50;46.80
9393;DHT22;4736;52.508;13.422;2023-06-14T17:34:21;21.40;47.00
9393;DHT22;4736;52.508;13.422;2023-06-14T17:37:25;21.40;47.10
9393;DHT22;4736;52.508;13.422;2023-06-14T17:40:30;21.40;47.20
9393;DHT22;4736;52.508;13.422;2023-06-14T17:43:50;21.40;47.30
9393;DHT22;4736;52.508;13.422;2023-06-14T17:46:53;21.30;47.30
9393;DHT22;4736;52.508;13.422;2023-06-14T17:49:56;21.30;47.30
9393;DHT22;4736;52.508;13.422;2023-06-14T17:53:04;21.20;47.70
9393;DHT22;4736;52.508;13.422;2023-06-14T17:56:08;21.10;47.70
9393;DHT22;4736;52.508;13.422;2023-06-14T17:59:12;21.10;47.80
9393;DHT22;4736;52.508;13.422;2023-06-14T18:02:15;21.10;47.80
9393;DHT22;4736;52.508;13.422;2023-06-14T18:05:18;21.10;47.80
9393;DHT22;4736;52.508;13.422;2023-06-14T18:08:21;21.10;47.90
9393;DHT22;4736;52.508;13.422;2023-06-14T18:11:25;21.10;48.10
9393;DHT22;4736;52.508;13.422;2023-06-14T18:14:29;21.00;48.20
9393;DHT22;4736;52.508;13.422;2023-06-14T18:17:32;21.00;48.20
9393;DHT22;4736;52.508;13.422;2023-06-14T18:20:35;21.00;48.10
9393;DHT22;4736;52.508;13.422;2023-06-14T18:23:42;21.00;48.20
9393;DHT22;4736;52.508;13.422;2023-06-14T18:26:46;21.00;48.20
9393;DHT22;4736;52.508;13.422;2023-06-14T18:29:50;20.90;48.30
9393;DHT22;4736;52.508;13.422;2023-06-14T18:32:54;20.90;48.20
9393;DHT22;4736;52.508;13.422;2023-06-14T18:35:57;20.90;48.20
9393;DHT22;4736;52.508;13.422;2023-06-14T18:39:00;20.90;48.30
9393;DHT22;4736;52.508;13.422;2023-06-14T18:42:05;20.80;48.40
9393;DHT22;4736;52.508;13.422;2023-06-14T18:45:10;20.80;48.50
9393;DHT22;4736;52.508;13.422;2023-06-14T18:48:13;20.80;48.50
9393;DHT22;4736;52.508;13.422;2023-06-14T18:51:17;20.70;48.50
9393;DHT22;4736;52.508;13.422;2023-06-14T18:54:20;20.70;48.70
9393;DHT22;4736;52.508;13.422;2023-06-14T18:57:24;20.70;48.80
9393;DHT22;4736;52.508;13.422;2023-06-14T19:00:28;20.70;48.80
9393;DHT22;4736;52.508;13.422;2023-06-14T19:03:32;20.70;48.80
9393;DHT22;4736;52.508;13.422;2023-06-14T19:06:35;20.60;48.90
9393;DHT22;4736;52.508;13.422;2023-06-14T19:09:40;20.60;49.00
9393;DHT22;4736;52.508;13.422;2023-06-14T19:12:44;20.60;49.10
9393;DHT22;4736;52.508;13.422;2023-06-14T19:15:47;20.60;49.10
9393;DHT22;4736;52.508;13.422;2023-06-14T19:18:54;20.50;49.10
9393;DHT22;4736;52.508;13.422;2023-06-14T19:21:58;20.50;49.20
9393;DHT22;4736;52.508;13.422;2023-06-14T19:25:01;20.50;49.30
9393;DHT22;4736;52.508;13.422;2023-06-14T19:28:06;20.50;49.40
9393;DHT22;4736;52.508;13.422;2023-06-14T19:31:09;20.50;49.50
9393;DHT22;4736;52.508;13.422;2023-06-14T19:34:13;20.50;49.50
9393;DHT22;4736;52.508;13.422;2023-06-14T19:37:16;20.40;49.60
9393;DHT22;4736;52.508;13.422;2023-06-14T19:40:20;20.30;49.70
9393;DHT22;4736;52.508;13.422;2023-06-14T19:43:24;20.30;49.90
9393;DHT22;4736;52.508;13.422;2023-06-14T19:46:27;20.30;50.00
9393;DHT22;4736;52.508;13.422;2023-06-14T19:49:30;20.30;49.90
9393;DHT22;4736;52.508;13.422;2023-06-14T19:52:33;20.30;50.00